Open Full Screen Window  High Contrast Mode
Wind Gusting 00 knots
04
April 18, 2014 4:45 PM EDT
Weather Information
Wind Direction
  020 °
Wind Speed
  04 kt (5 mph)
Wind Gust
  00 kt (0 mph)
Altimeter
30.23 in
Visibility
10 SM
Temperature
21° C
70° F
Dewpoint
01° C
34° F
Humidity
27%
1hr Rain Fall
00.00 in.
24hr Rain Fall
00.00 in.
Sky Condition
Broken @ 7,500 ft
VFR

METAR KI69 182045Z AUTO 02004KT 10SM BKN075 21/01 A3023 RMK AO1

*Background is not an actual portrayal of the airport.